sensor_id;sensor_type;location;lat;lon;timestamp;P1;durP1;ratioP1;P2;durP2;ratioP2
14789;SDS011;7486;51.010;10.366;2023-10-19T00:00:27;13.13;;;11.73;;
14789;SDS011;7486;51.010;10.366;2023-10-19T00:03:13;15.10;;;12.37;;
14789;SDS011;7486;51.010;10.366;2023-10-19T00:05:59;14.13;;;12.70;;
14789;SDS011;7486;51.010;10.366;2023-10-19T00:08:44;15.30;;;13.30;;
14789;SDS011;7486;51.010;10.366;2023-10-19T00:11:30;14.93;;;12.93;;
14789;SDS011;7486;51.010;10.366;2023-10-19T00:14:15;16.93;;;13.70;;
14789;SDS011;7486;51.010;10.366;2023-10-19T00:17:00;15.13;;;13.53;;
14789;SDS011;7486;51.010;10.366;2023-10-19T00:19:46;16.43;;;13.10;;
14789;SDS011;7486;51.010;10.366;2023-10-19T00:22:31;14.43;;;12.70;;
14789;SDS011;7486;51.010;10.366;2023-10-19T00:25:17;14.80;;;13.27;;
14789;SDS011;7486;51.010;10.366;2023-10-19T00:28:02;13.93;;;12.20;;
14789;SDS011;7486;51.010;10.366;2023-10-19T00:30:48;14.77;;;12.80;;
14789;SDS011;7486;51.010;10.366;2023-10-19T00:33:34;15.73;;;12.73;;
14789;SDS011;7486;51.010;10.366;2023-10-19T00:36:20;15.17;;;13.23;;
14789;SDS011;7486;51.010;10.366;2023-10-19T00:39:06;14.90;;;12.90;;
14789;SDS011;7486;51.010;10.366;2023-10-19T00:41:52;14.47;;;12.87;;
14789;SDS011;7486;51.010;10.366;2023-10-19T00:44:37;14.73;;;12.80;;
14789;SDS011;7486;51.010;10.366;2023-10-19T00:47:24;15.73;;;13.30;;
14789;SDS011;7486;51.010;10.366;2023-10-19T00:50:10;14.73;;;12.33;;
14789;SDS011;7486;51.010;10.366;2023-10-19T00:52:55;14.70;;;13.17;;
14789;SDS011;7486;51.010;10.366;2023-10-19T00:55:41;15.33;;;13.57;;
14789;SDS011;7486;51.010;10.366;2023-10-19T00:58:26;17.13;;;12.83;;
14789;SDS011;7486;51.010;10.366;2023-10-19T01:01:11;15.60;;;13.30;;
14789;SDS011;7486;51.010;10.366;2023-10-19T01:03:57;16.93;;;13.63;;
14789;SDS011;7486;51.010;10.366;2023-10-19T01:06:43;14.80;;;13.17;;
14789;SDS011;7486;51.010;10.366;2023-10-19T01:09:28;15.30;;;13.67;;
14789;SDS011;7486;51.010;10.366;2023-10-19T01:12:14;16.83;;;13.00;;
14789;SDS011;7486;51.010;10.366;2023-10-19T01:15:00;15.10;;;12.90;;
14789;SDS011;7486;51.010;10.366;2023-10-19T01:17:59;16.50;;;13.87;;
14789;SDS011;7486;51.010;10.366;2023-10-19T01:20:45;15.23;;;13.60;;
14789;SDS011;7486;51.010;10.366;2023-10-19T01:23:30;15.30;;;13.70;;
14789;SDS011;7486;51.010;10.366;2023-10-19T01:26:16;15.10;;;13.50;;
14789;SDS011;7486;51.010;10.366;2023-10-19T01:29:01;16.40;;;14.10;;
14789;SDS011;7486;51.010;10.366;2023-10-19T01:31:47;14.77;;;13.20;;
14789;SDS011;7486;51.010;10.366;2023-10-19T01:34:32;16.63;;;14.13;;
14789;SDS011;7486;51.010;10.366;2023-10-19T01:37:18;17.33;;;14.70;;
14789;SDS011;7486;51.010;10.366;2023-10-19T01:40:04;16.00;;;14.10;;
14789;SDS011;7486;51.010;10.366;2023-10-19T01:42:49;17.23;;;15.07;;
14789;SDS011;7486;51.010;10.366;2023-10-19T01:45:35;17.53;;;15.37;;
14789;SDS011;7486;51.010;10.366;2023-10-19T01:48:20;16.70;;;14.87;;
14789;SDS011;7486;51.010;10.366;2023-10-19T01:51:06;17.90;;;15.30;;
14789;SDS011;7486;51.010;10.366;2023-10-19T01:53:53;18.23;;;16.00;;
14789;SDS011;7486;51.010;10.366;2023-10-19T01:56:38;16.93;;;15.13;;
14789;SDS011;7486;51.010;10.366;2023-10-19T01:59:25;21.13;;;16.45;;
14789;SDS011;7486;51.010;10.366;2023-10-19T02:02:12;19.73;;;15.13;;
14789;SDS011;7486;51.010;10.366;2023-10-19T02:04:58;18.10;;;16.20;;
14789;SDS011;7486;51.010;10.366;2023-10-19T02:07:43;18.60;;;16.23;;
14789;SDS011;7486;51.010;10.366;2023-10-19T02:10:28;19.43;;;17.30;;
14789;SDS011;7486;51.010;10.366;2023-10-19T02:13:14;20.30;;;16.27;;
14789;SDS011;7486;51.010;10.366;2023-10-19T02:16:00;18.87;;;16.37;;
14789;SDS011;7486;51.010;10.366;2023-10-19T02:18:45;19.77;;;16.97;;
14789;SDS011;7486;51.010;10.366;2023-10-19T02:21:31;19.93;;;17.10;;
14789;SDS011;7486;51.010;10.366;2023-10-19T02:24:16;22.63;;;16.90;;
14789;SDS011;7486;51.010;10.366;2023-10-19T02:27:02;18.90;;;16.83;;
14789;SDS011;7486;51.010;10.366;2023-10-19T02:29:47;19.47;;;16.90;;
14789;SDS011;7486;51.010;10.366;2023-10-19T02:32:33;20.33;;;18.10;;
14789;SDS011;7486;51.010;10.366;2023-10-19T02:35:18;20.87;;;17.77;;
14789;SDS011;7486;51.010;10.366;2023-10-19T02:38:03;21.43;;;18.03;;
14789;SDS011;7486;51.010;10.366;2023-10-19T02:40:49;20.73;;;17.37;;
14789;SDS011;7486;51.010;10.366;2023-10-19T02:43:35;19.93;;;17.83;;
14789;SDS011;7486;51.010;10.366;2023-10-19T02:46:21;20.97;;;17.93;;
14789;SDS011;7486;51.010;10.366;2023-10-19T02:49:07;18.90;;;16.87;;
14789;SDS011;7486;51.010;10.366;2023-10-19T02:51:53;22.30;;;18.70;;
14789;SDS011;7486;51.010;10.366;2023-10-19T02:54:39;23.47;;;18.83;;
14789;SDS011;7486;51.010;10.366;2023-10-19T02:57:25;21.90;;;17.87;;
14789;SDS011;7486;51.010;10.366;2023-10-19T03:00:11;22.40;;;18.50;;
14789;SDS011;7486;51.010;10.366;2023-10-19T03:02:56;22.67;;;19.17;;
14789;SDS011;7486;51.010;10.366;2023-10-19T03:05:42;23.83;;;19.90;;
14789;SDS011;7486;51.010;10.366;2023-10-19T03:08:28;23.07;;;19.23;;
14789;SDS011;7486;51.010;10.366;2023-10-19T03:11:13;24.33;;;19.87;;
14789;SDS011;7486;51.010;10.366;2023-10-19T03:13:59;23.40;;;19.37;;
14789;SDS011;7486;51.010;10.366;2023-10-19T03:16:45;22.63;;;19.80;;
14789;SDS011;7486;51.010;10.366;2023-10-19T03:19:31;24.97;;;20.13;;
14789;SDS011;7486;51.010;10.366;2023-10-19T03:22:16;21.40;;;18.97;;
14789;SDS011;7486;51.010;10.366;2023-10-19T03:25:01;24.03;;;18.63;;
14789;SDS011;7486;51.010;10.366;2023-10-19T03:27:47;23.10;;;18.87;;
14789;SDS011;7486;51.010;10.366;2023-10-19T03:30:32;20.83;;;18.03;;
14789;SDS011;7486;51.010;10.366;2023-10-19T03:33:17;22.40;;;18.37;;
14789;SDS011;7486;51.010;10.366;2023-10-19T03:36:02;19.67;;;16.87;;
14789;SDS011;7486;51.010;10.366;2023-10-19T03:38:48;23.17;;;18.13;;
14789;SDS011;7486;51.010;10.366;2023-10-19T03:41:34;22.13;;;18.13;;
14789;SDS011;7486;51.010;10.366;2023-10-19T03:44:20;21.20;;;17.53;;
14789;SDS011;7486;51.010;10.366;2023-10-19T03:47:05;21.97;;;17.67;;
14789;SDS011;7486;51.010;10.366;2023-10-19T03:49:52;20.50;;;17.80;;
14789;SDS011;7486;51.010;10.366;2023-10-19T03:52:38;22.10;;;18.10;;
14789;SDS011;7486;51.010;10.366;2023-10-19T03:55:24;20.33;;;17.43;;
14789;SDS011;7486;51.010;10.366;2023-10-19T03:58:09;22.23;;;17.47;;
14789;SDS011;7486;51.010;10.366;2023-10-19T04:00:54;20.40;;;17.87;;
14789;SDS011;7486;51.010;10.366;2023-10-19T04:03:40;19.17;;;16.73;;
14789;SDS011;7486;51.010;10.366;2023-10-19T04:06:26;19.17;;;16.53;;
14789;SDS011;7486;51.010;10.366;2023-10-19T04:09:11;20.33;;;16.70;;
14789;SDS011;7486;51.010;10.366;2023-10-19T04:11:56;19.63;;;15.77;;
14789;SDS011;7486;51.010;10.366;2023-10-19T04:14:41;18.90;;;16.03;;
14789;SDS011;7486;51.010;10.366;2023-10-19T04:17:27;20.17;;;16.60;;
14789;SDS011;7486;51.010;10.366;2023-10-19T04:20:16;18.10;;;15.77;;
14789;SDS011;7486;51.010;10.366;2023-10-19T04:23:02;16.53;;;14.73;;
14789;SDS011;7486;51.010;10.366;2023-10-19T04:25:48;17.63;;;15.73;;
14789;SDS011;7486;51.010;10.366;2023-10-19T04:28:33;19.27;;;16.57;;
14789;SDS011;7486;51.010;10.366;2023-10-19T04:31:19;19.57;;;16.93;;
14789;SDS011;7486;51.010;10.366;2023-10-19T04:34:05;18.20;;;16.23;;
14789;SDS011;7486;51.010;10.366;2023-10-19T04:36:54;19.27;;;15.97;;
14789;SDS011;7486;51.010;10.366;2023-10-19T04:39:40;19.47;;;15.60;;
14789;SDS011;7486;51.010;10.366;2023-10-19T04:42:26;17.80;;;15.27;;
14789;SDS011;7486;51.010;10.366;2023-10-19T04:45:12;15.67;;;13.97;;
14789;SDS011;7486;51.010;10.366;2023-10-19T04:47:58;16.43;;;14.33;;
14789;SDS011;7486;51.010;10.366;2023-10-19T04:50:43;15.53;;;13.37;;
14789;SDS011;7486;51.010;10.366;2023-10-19T04:53:29;16.40;;;14.23;;
14789;SDS011;7486;51.010;10.366;2023-10-19T04:56:16;17.43;;;13.90;;
14789;SDS011;7486;51.010;10.366;2023-10-19T04:59:01;16.10;;;13.97;;
14789;SDS011;7486;51.010;10.366;2023-10-19T05:01:48;16.13;;;14.43;;
14789;SDS011;7486;51.010;10.366;2023-10-19T05:04:33;16.20;;;14.07;;
14789;SDS011;7486;51.010;10.366;2023-10-19T05:07:19;17.03;;;14.47;;
14789;SDS011;7486;51.010;10.366;2023-10-19T05:10:05;17.63;;;14.27;;
14789;SDS011;7486;51.010;10.366;2023-10-19T05:12:50;15.30;;;12.80;;
14789;SDS011;7486;51.010;10.366;2023-10-19T05:15:35;17.23;;;13.30;;
14789;SDS011;7486;51.010;10.366;2023-10-19T05:18:22;17.30;;;13.83;;
14789;SDS011;7486;51.010;10.366;2023-10-19T05:21:08;17.38;;;14.00;;
14789;SDS011;7486;51.010;10.366;2023-10-19T05:23:53;12.73;;;10.83;;
14789;SDS011;7486;51.010;10.366;2023-10-19T05:26:39;13.03;;;11.73;;
14789;SDS011;7486;51.010;10.366;2023-10-19T05:29:26;11.57;;;10.37;;
14789;SDS011;7486;51.010;10.366;2023-10-19T05:32:11;9.47;;;8.57;;
14789;SDS011;7486;51.010;10.366;2023-10-19T05:34:56;9.18;;;8.38;;
14789;SDS011;7486;51.010;10.366;2023-10-19T05:37:45;10.25;;;8.75;;
14789;SDS011;7486;51.010;10.366;2023-10-19T05:40:30;9.70;;;8.70;;
14789;SDS011;7486;51.010;10.366;2023-10-19T05:43:16;9.37;;;8.43;;
14789;SDS011;7486;51.010;10.366;2023-10-19T05:46:01;10.07;;;9.07;;
14789;SDS011;7486;51.010;10.366;2023-10-19T05:48:46;9.95;;;8.95;;
14789;SDS011;7486;51.010;10.366;2023-10-19T05:51:32;11.20;;;9.20;;
14789;SDS011;7486;51.010;10.366;2023-10-19T05:54:17;9.07;;;8.27;;
14789;SDS011;7486;51.010;10.366;2023-10-19T05:57:02;10.38;;;9.27;;
14789;SDS011;7486;51.010;10.366;2023-10-19T05:59:49;10.50;;;9.43;;
14789;SDS011;7486;51.010;10.366;2023-10-19T06:02:34;11.23;;;10.10;;
14789;SDS011;7486;51.010;10.366;2023-10-19T06:05:20;10.70;;;9.60;;
14789;SDS011;7486;51.010;10.366;2023-10-19T06:08:06;10.93;;;9.85;;
14789;SDS011;7486;51.010;10.366;2023-10-19T06:10:51;11.07;;;9.98;;
14789;SDS011;7486;51.010;10.366;2023-10-19T06:13:37;11.35;;;10.20;;
14789;SDS011;7486;51.010;10.366;2023-10-19T06:16:22;11.90;;;10.65;;
14789;SDS011;7486;51.010;10.366;2023-10-19T06:19:08;11.40;;;10.20;;
14789;SDS011;7486;51.010;10.366;2023-10-19T06:21:53;11.15;;;10.05;;
14789;SDS011;7486;51.010;10.366;2023-10-19T06:24:38;11.18;;;10.07;;
14789;SDS011;7486;51.010;10.366;2023-10-19T06:27:24;11.07;;;9.90;;
14789;SDS011;7486;51.010;10.366;2023-10-19T06:30:10;11.02;;;9.93;;
14789;SDS011;7486;51.010;10.366;2023-10-19T06:32:59;11.98;;;10.77;;
14789;SDS011;7486;51.010;10.366;2023-10-19T06:35:45;12.63;;;11.13;;
14789;SDS011;7486;51.010;10.366;2023-10-19T06:38:31;11.95;;;10.75;;
14789;SDS011;7486;51.010;10.366;2023-10-19T06:41:17;12.15;;;10.80;;
14789;SDS011;7486;51.010;10.366;2023-10-19T06:44:03;11.87;;;10.63;;
14789;SDS011;7486;51.010;10.366;2023-10-19T06:46:49;11.82;;;10.73;;
14789;SDS011;7486;51.010;10.366;2023-10-19T06:49:35;12.25;;;11.02;;
14789;SDS011;7486;51.010;10.366;2023-10-19T06:52:20;12.10;;;10.90;;
14789;SDS011;7486;51.010;10.366;2023-10-19T06:55:06;12.27;;;11.07;;
14789;SDS011;7486;51.010;10.366;2023-10-19T06:57:53;12.13;;;10.93;;
14789;SDS011;7486;51.010;10.366;2023-10-19T07:00:38;12.57;;;11.30;;
14789;SDS011;7486;51.010;10.366;2023-10-19T07:03:24;12.68;;;11.38;;
14789;SDS011;7486;51.010;10.366;2023-10-19T07:06:09;13.00;;;11.70;;
14789;SDS011;7486;51.010;10.366;2023-10-19T07:08:58;13.02;;;11.60;;
14789;SDS011;7486;51.010;10.366;2023-10-19T07:11:44;13.63;;;12.10;;
14789;SDS011;7486;51.010;10.366;2023-10-19T07:14:32;13.35;;;11.95;;
14789;SDS011;7486;51.010;10.366;2023-10-19T07:17:18;13.80;;;12.32;;
14789;SDS011;7486;51.010;10.366;2023-10-19T07:20:04;13.90;;;12.40;;
14789;SDS011;7486;51.010;10.366;2023-10-19T07:22:51;13.48;;;11.98;;
14789;SDS011;7486;51.010;10.366;2023-10-19T07:25:37;14.55;;;12.15;;
14789;SDS011;7486;51.010;10.366;2023-10-19T07:28:22;12.88;;;11.57;;
14789;SDS011;7486;51.010;10.366;2023-10-19T07:31:08;15.05;;;12.85;;
14789;SDS011;7486;51.010;10.366;2023-10-19T07:33:53;14.77;;;13.27;;
14789;SDS011;7486;51.010;10.366;2023-10-19T07:36:39;15.02;;;12.80;;
14789;SDS011;7486;51.010;10.366;2023-10-19T07:39:26;17.00;;;15.20;;
14789;SDS011;7486;51.010;10.366;2023-10-19T07:42:12;18.67;;;16.60;;
14789;SDS011;7486;51.010;10.366;2023-10-19T07:44:57;19.92;;;17.65;;
14789;SDS011;7486;51.010;10.366;2023-10-19T07:47:42;19.85;;;17.38;;
14789;SDS011;7486;51.010;10.366;2023-10-19T07:50:28;19.08;;;17.10;;
14789;SDS011;7486;51.010;10.366;2023-10-19T07:53:14;18.48;;;16.48;;
14789;SDS011;7486;51.010;10.366;2023-10-19T07:55:59;17.08;;;15.27;;
14789;SDS011;7486;51.010;10.366;2023-10-19T07:58:44;16.98;;;15.15;;
14789;SDS011;7486;51.010;10.366;2023-10-19T08:01:30;15.52;;;13.93;;
14789;SDS011;7486;51.010;10.366;2023-10-19T08:04:15;16.27;;;14.32;;
14789;SDS011;7486;51.010;10.366;2023-10-19T08:07:01;15.93;;;14.02;;
14789;SDS011;7486;51.010;10.366;2023-10-19T08:09:46;14.82;;;13.27;;
14789;SDS011;7486;51.010;10.366;2023-10-19T08:12:31;15.23;;;13.63;;
14789;SDS011;7486;51.010;10.366;2023-10-19T08:15:17;14.85;;;13.27;;
14789;SDS011;7486;51.010;10.366;2023-10-19T08:18:04;14.75;;;13.25;;
14789;SDS011;7486;51.010;10.366;2023-10-19T08:20:49;13.73;;;12.35;;
14789;SDS011;7486;51.010;10.366;2023-10-19T08:23:34;12.13;;;11.02;;
14789;SDS011;7486;51.010;10.366;2023-10-19T08:26:20;13.40;;;11.43;;
14789;SDS011;7486;51.010;10.366;2023-10-19T08:29:05;12.75;;;11.50;;
14789;SDS011;7486;51.010;10.366;2023-10-19T08:31:51;12.25;;;11.05;;
14789;SDS011;7486;51.010;10.366;2023-10-19T08:34:36;14.10;;;12.80;;
14789;SDS011;7486;51.010;10.366;2023-10-19T08:37:22;12.15;;;10.95;;
14789;SDS011;7486;51.010;10.366;2023-10-19T08:40:11;11.02;;;9.73;;
14789;SDS011;7486;51.010;10.366;2023-10-19T08:42:57;11.70;;;10.50;;
14789;SDS011;7486;51.010;10.366;2023-10-19T08:45:42;11.20;;;10.00;;
14789;SDS011;7486;51.010;10.366;2023-10-19T08:48:28;11.45;;;10.35;;
14789;SDS011;7486;51.010;10.366;2023-10-19T08:51:17;12.50;;;11.00;;
14789;SDS011;7486;51.010;10.366;2023-10-19T08:54:04;12.48;;;11.18;;
14789;SDS011;7486;51.010;10.366;2023-10-19T08:56:52;12.10;;;10.90;;
14789;SDS011;7486;51.010;10.366;2023-10-19T08:59:37;12.40;;;11.10;;
14789;SDS011;7486;51.010;10.366;2023-10-19T09:02:22;12.82;;;11.52;;
14789;SDS011;7486;51.010;10.366;2023-10-19T09:05:08;16.50;;;11.68;;
14789;SDS011;7486;51.010;10.366;2023-10-19T09:07:54;13.52;;;11.80;;
14789;SDS011;7486;51.010;10.366;2023-10-19T09:10:40;13.20;;;11.45;;
14789;SDS011;7486;51.010;10.366;2023-10-19T09:13:25;13.68;;;12.20;;
14789;SDS011;7486;51.010;10.366;2023-10-19T09:16:11;13.55;;;12.18;;
14789;SDS011;7486;51.010;10.366;2023-10-19T09:18:56;15.35;;;12.52;;
14789;SDS011;7486;51.010;10.366;2023-10-19T09:21:42;13.65;;;12.23;;
14789;SDS011;7486;51.010;10.366;2023-10-19T09:24:27;13.82;;;12.43;;
14789;SDS011;7486;51.010;10.366;2023-10-19T09:27:19;14.30;;;12.80;;
14789;SDS011;7486;51.010;10.366;2023-10-19T09:30:05;15.18;;;13.57;;
14789;SDS011;7486;51.010;10.366;2023-10-19T09:32:53;14.20;;;12.70;;
14789;SDS011;7486;51.010;10.366;2023-10-19T09:35:40;14.30;;;12.65;;
14789;SDS011;7486;51.010;10.366;2023-10-19T09:38:26;13.70;;;12.30;;
14789;SDS011;7486;51.010;10.366;2023-10-19T09:41:15;12.57;;;11.13;;
14789;SDS011;7486;51.010;10.366;2023-10-19T09:44:03;12.35;;;10.95;;
14789;SDS011;7486;51.010;10.366;2023-10-19T09:46:51;10.38;;;9.27;;
14789;SDS011;7486;51.010;10.366;2023-10-19T09:49:42;10.13;;;9.13;;
14789;SDS011;7486;51.010;10.366;2023-10-19T09:52:28;10.40;;;9.30;;
14789;SDS011;7486;51.010;10.366;2023-10-19T09:58:33;9.27;;;8.38;;
14789;SDS011;7486;51.010;10.366;2023-10-19T10:01:22;7.93;;;7.13;;
14789;SDS011;7486;51.010;10.366;2023-10-19T10:04:07;7.50;;;6.75;;
14789;SDS011;7486;51.010;10.366;2023-10-19T10:07:17;7.38;;;6.68;;
14789;SDS011;7486;51.010;10.366;2023-10-19T10:10:19;6.78;;;6.18;;
14789;SDS011;7486;51.010;10.366;2023-10-19T10:16:12;6.45;;;5.85;;
14789;SDS011;7486;51.010;10.366;2023-10-19T10:18:59;6.60;;;6.00;;
14789;SDS011;7486;51.010;10.366;2023-10-19T10:22:03;7.03;;;6.28;;
14789;SDS011;7486;51.010;10.366;2023-10-19T10:24:58;7.50;;;6.20;;
14789;SDS011;7486;51.010;10.366;2023-10-19T10:27:51;6.40;;;5.80;;
14789;SDS011;7486;51.010;10.366;2023-10-19T10:30:36;6.40;;;5.75;;
14789;SDS011;7486;51.010;10.366;2023-10-19T10:34:08;6.97;;;6.28;;
14789;SDS011;7486;51.010;10.366;2023-10-19T10:36:56;7.20;;;6.50;;
14789;SDS011;7486;51.010;10.366;2023-10-19T10:39:42;7.20;;;6.50;;
14789;SDS011;7486;51.010;10.366;2023-10-19T10:42:27;7.40;;;6.63;;
14789;SDS011;7486;51.010;10.366;2023-10-19T10:45:19;8.50;;;7.60;;
14789;SDS011;7486;51.010;10.366;2023-10-19T10:48:14;7.32;;;6.63;;
14789;SDS011;7486;51.010;10.366;2023-10-19T10:51:00;7.72;;;6.93;;
14789;SDS011;7486;51.010;10.366;2023-10-19T10:53:47;8.95;;;8.15;;
14789;SDS011;7486;51.010;10.366;2023-10-19T10:56:39;8.05;;;6.72;;
14789;SDS011;7486;51.010;10.366;2023-10-19T10:59:25;7.57;;;6.15;;
14789;SDS011;7486;51.010;10.366;2023-10-19T11:02:16;6.70;;;6.10;;
14789;SDS011;7486;51.010;10.366;2023-10-19T11:05:03;6.97;;;6.28;;
14789;SDS011;7486;51.010;10.366;2023-10-19T11:11:05;6.47;;;5.88;;
14789;SDS011;7486;51.010;10.366;2023-10-19T11:13:52;6.50;;;5.90;;
14789;SDS011;7486;51.010;10.366;2023-10-19T11:16:37;6.82;;;6.13;;
14789;SDS011;7486;51.010;10.366;2023-10-19T11:19:37;6.32;;;5.72;;
14789;SDS011;7486;51.010;10.366;2023-10-19T11:22:23;6.88;;;6.18;;
14789;SDS011;7486;51.010;10.366;2023-10-19T11:25:19;7.72;;;6.20;;
14789;SDS011;7486;51.010;10.366;2023-10-19T11:28:07;6.70;;;5.60;;
14789;SDS011;7486;51.010;10.366;2023-10-19T11:31:18;6.22;;;5.65;;
14789;SDS011;7486;51.010;10.366;2023-10-19T11:34:06;5.90;;;5.40;;
14789;SDS011;7486;51.010;10.366;2023-10-19T11:36:53;6.30;;;5.65;;
14789;SDS011;7486;51.010;10.366;2023-10-19T11:39:39;6.78;;;6.07;;
14789;SDS011;7486;51.010;10.366;2023-10-19T11:42:23;6.85;;;6.22;;
14789;SDS011;7486;51.010;10.366;2023-10-19T11:45:09;7.15;;;5.90;;
14789;SDS011;7486;51.010;10.366;2023-10-19T11:47:55;7.35;;;6.47;;
14789;SDS011;7486;51.010;10.366;2023-10-19T11:50:40;8.30;;;7.03;;
14789;SDS011;7486;51.010;10.366;2023-10-19T11:53:25;9.40;;;7.32;;
14789;SDS011;7486;51.010;10.366;2023-10-19T11:56:11;8.15;;;7.35;;
14789;SDS011;7486;51.010;10.366;2023-10-19T11:58:58;9.05;;;7.45;;
14789;SDS011;7486;51.010;10.366;2023-10-19T12:01:44;11.05;;;8.98;;
14789;SDS011;7486;51.010;10.366;2023-10-19T12:04:29;10.98;;;8.35;;
14789;SDS011;7486;51.010;10.366;2023-10-19T12:07:15;9.55;;;8.50;;
14789;SDS011;7486;51.010;10.366;2023-10-19T12:09:59;8.93;;;8.02;;
14789;SDS011;7486;51.010;10.366;2023-10-19T12:12:45;8.45;;;7.47;;
14789;SDS011;7486;51.010;10.366;2023-10-19T12:15:44;8.20;;;7.38;;
14789;SDS011;7486;51.010;10.366;2023-10-19T12:18:29;7.95;;;7.20;;
14789;SDS011;7486;51.010;10.366;2023-10-19T12:21:15;7.72;;;6.82;;
14789;SDS011;7486;51.010;10.366;2023-10-19T12:24:01;7.75;;;6.95;;
14789;SDS011;7486;51.010;10.366;2023-10-19T12:26:46;7.63;;;6.93;;
14789;SDS011;7486;51.010;10.366;2023-10-19T12:29:32;7.78;;;6.57;;
14789;SDS011;7486;51.010;10.366;2023-10-19T12:32:17;7.40;;;6.70;;
14789;SDS011;7486;51.010;10.366;2023-10-19T12:35:02;6.85;;;6.15;;
14789;SDS011;7486;51.010;10.366;2023-10-19T12:37:48;6.82;;;6.22;;
14789;SDS011;7486;51.010;10.366;2023-10-19T12:40:33;6.07;;;5.47;;
14789;SDS011;7486;51.010;10.366;2023-10-19T12:43:19;5.80;;;5.25;;
14789;SDS011;7486;51.010;10.366;2023-10-19T12:46:05;5.63;;;5.13;;
14789;SDS011;7486;51.010;10.366;2023-10-19T12:48:51;5.75;;;5.10;;
14789;SDS011;7486;51.010;10.366;2023-10-19T12:51:37;5.80;;;5.30;;
14789;SDS011;7486;51.010;10.366;2023-10-19T12:54:22;5.90;;;5.00;;
14789;SDS011;7486;51.010;10.366;2023-10-19T12:57:07;5.25;;;4.60;;
14789;SDS011;7486;51.010;10.366;2023-10-19T12:59:53;5.78;;;5.15;;
14789;SDS011;7486;51.010;10.366;2023-10-19T13:02:38;5.20;;;4.70;;
14789;SDS011;7486;51.010;10.366;2023-10-19T13:05:23;5.50;;;4.78;;
14789;SDS011;7486;51.010;10.366;2023-10-19T13:08:09;5.68;;;4.60;;
14789;SDS011;7486;51.010;10.366;2023-10-19T13:10:55;5.72;;;5.10;;
14789;SDS011;7486;51.010;10.366;2023-10-19T13:13:52;5.20;;;4.70;;
14789;SDS011;7486;51.010;10.366;2023-10-19T13:16:38;5.03;;;4.63;;
14789;SDS011;7486;51.010;10.366;2023-10-19T13:19:24;5.53;;;4.90;;
14789;SDS011;7486;51.010;10.366;2023-10-19T13:22:09;5.53;;;4.75;;
14789;SDS011;7486;51.010;10.366;2023-10-19T13:24:55;5.57;;;4.50;;
14789;SDS011;7486;51.010;10.366;2023-10-19T13:27:40;5.22;;;4.60;;
14789;SDS011;7486;51.010;10.366;2023-10-19T13:30:26;5.63;;;4.40;;
14789;SDS011;7486;51.010;10.366;2023-10-19T13:33:11;5.10;;;4.60;;
14789;SDS011;7486;51.010;10.366;2023-10-19T13:35:56;4.85;;;4.40;;
14789;SDS011;7486;51.010;10.366;2023-10-19T13:38:41;4.63;;;4.22;;
14789;SDS011;7486;51.010;10.366;2023-10-19T13:41:27;4.93;;;4.28;;
14789;SDS011;7486;51.010;10.366;2023-10-19T13:44:12;5.93;;;4.57;;
14789;SDS011;7486;51.010;10.366;2023-10-19T13:46:58;7.40;;;4.93;;
14789;SDS011;7486;51.010;10.366;2023-10-19T13:49:43;5.50;;;4.63;;
14789;SDS011;7486;51.010;10.366;2023-10-19T13:52:29;4.65;;;4.25;;
14789;SDS011;7486;51.010;10.366;2023-10-19T13:55:14;5.15;;;4.20;;
14789;SDS011;7486;51.010;10.366;2023-10-19T13:58:04;5.07;;;4.30;;
14789;SDS011;7486;51.010;10.366;2023-10-19T14:00:49;4.75;;;4.30;;
14789;SDS011;7486;51.010;10.366;2023-10-19T14:03:35;4.90;;;4.40;;
14789;SDS011;7486;51.010;10.366;2023-10-19T14:06:20;4.07;;;3.72;;
14789;SDS011;7486;51.010;10.366;2023-10-19T14:09:06;5.18;;;4.13;;
14789;SDS011;7486;51.010;10.366;2023-10-19T14:11:51;4.30;;;3.88;;
14789;SDS011;7486;51.010;10.366;2023-10-19T14:14:37;5.43;;;4.00;;
14789;SDS011;7486;51.010;10.366;2023-10-19T14:17:22;5.47;;;4.43;;
14789;SDS011;7486;51.010;10.366;2023-10-19T14:20:08;4.32;;;3.90;;
14789;SDS011;7486;51.010;10.366;2023-10-19T14:22:54;4.75;;;4.30;;
14789;SDS011;7486;51.010;10.366;2023-10-19T14:25:40;4.13;;;3.72;;
14789;SDS011;7486;51.010;10.366;2023-10-19T14:28:25;5.90;;;4.18;;
14789;SDS011;7486;51.010;10.366;2023-10-19T14:31:11;4.45;;;4.05;;
14789;SDS011;7486;51.010;10.366;2023-10-19T14:33:56;5.25;;;3.90;;
14789;SDS011;7486;51.010;10.366;2023-10-19T14:36:42;4.53;;;4.13;;
14789;SDS011;7486;51.010;10.366;2023-10-19T14:39:27;4.40;;;4.00;;
14789;SDS011;7486;51.010;10.366;2023-10-19T14:42:13;4.90;;;4.40;;
14789;SDS011;7486;51.010;10.366;2023-10-19T14:44:59;4.70;;;4.30;;
14789;SDS011;7486;51.010;10.366;2023-10-19T14:47:48;4.68;;;4.22;;
14789;SDS011;7486;51.010;10.366;2023-10-19T14:50:34;5.05;;;4.20;;
14789;SDS011;7486;51.010;10.366;2023-10-19T14:53:20;4.68;;;4.28;;
14789;SDS011;7486;51.010;10.366;2023-10-19T14:56:05;5.00;;;4.50;;
14789;SDS011;7486;51.010;10.366;2023-10-19T14:58:51;4.65;;;4.25;;
14789;SDS011;7486;51.010;10.366;2023-10-19T15:01:39;6.68;;;4.60;;
14789;SDS011;7486;51.010;10.366;2023-10-19T15:04:25;4.70;;;4.25;;
14789;SDS011;7486;51.010;10.366;2023-10-19T15:07:13;6.03;;;4.40;;
14789;SDS011;7486;51.010;10.366;2023-10-19T15:09:59;4.97;;;4.47;;
14789;SDS011;7486;51.010;10.366;2023-10-19T15:12:44;5.80;;;4.60;;
14789;SDS011;7486;51.010;10.366;2023-10-19T15:15:29;4.93;;;4.43;;
14789;SDS011;7486;51.010;10.366;2023-10-19T15:18:15;5.50;;;4.70;;
14789;SDS011;7486;51.010;10.366;2023-10-19T15:21:06;5.15;;;4.65;;
14789;SDS011;7486;51.010;10.366;2023-10-19T15:23:53;4.78;;;4.38;;
14789;SDS011;7486;51.010;10.366;2023-10-19T15:26:39;5.97;;;4.40;;
14789;SDS011;7486;51.010;10.366;2023-10-19T15:29:25;5.15;;;4.60;;
14789;SDS011;7486;51.010;10.366;2023-10-19T15:32:11;5.10;;;4.60;;
14789;SDS011;7486;51.010;10.366;2023-10-19T15:34:56;5.05;;;4.65;;
14789;SDS011;7486;51.010;10.366;2023-10-19T15:37:43;5.50;;;4.80;;
14789;SDS011;7486;51.010;10.366;2023-10-19T15:40:29;4.65;;;4.10;;
14789;SDS011;7486;51.010;10.366;2023-10-19T15:43:15;5.32;;;4.60;;
14789;SDS011;7486;51.010;10.366;2023-10-19T15:46:00;5.15;;;4.32;;
14789;SDS011;7486;51.010;10.366;2023-10-19T15:48:46;4.85;;;4.40;;
14789;SDS011;7486;51.010;10.366;2023-10-19T15:51:31;6.35;;;4.95;;
14789;SDS011;7486;51.010;10.366;2023-10-19T15:54:17;4.90;;;4.50;;
14789;SDS011;7486;51.010;10.366;2023-10-19T15:57:02;5.47;;;4.78;;
14789;SDS011;7486;51.010;10.366;2023-10-19T15:59:48;5.30;;;4.80;;
14789;SDS011;7486;51.010;10.366;2023-10-19T16:02:33;5.80;;;4.78;;
14789;SDS011;7486;51.010;10.366;2023-10-19T16:05:19;5.10;;;4.60;;
14789;SDS011;7486;51.010;10.366;2023-10-19T16:08:05;5.60;;;5.10;;
14789;SDS011;7486;51.010;10.366;2023-10-19T16:10:50;6.43;;;5.32;;
14789;SDS011;7486;51.010;10.366;2023-10-19T16:13:36;5.03;;;4.53;;
14789;SDS011;7486;51.010;10.366;2023-10-19T16:16:22;6.50;;;5.28;;
14789;SDS011;7486;51.010;10.366;2023-10-19T16:19:07;5.50;;;5.00;;
14789;SDS011;7486;51.010;10.366;2023-10-19T16:21:53;6.25;;;4.82;;
14789;SDS011;7486;51.010;10.366;2023-10-19T16:24:38;6.22;;;4.93;;
14789;SDS011;7486;51.010;10.366;2023-10-19T16:27:23;7.25;;;5.63;;
14789;SDS011;7486;51.010;10.366;2023-10-19T16:30:08;8.38;;;7.28;;
14789;SDS011;7486;51.010;10.366;2023-10-19T16:32:54;7.38;;;6.70;;
14789;SDS011;7486;51.010;10.366;2023-10-19T16:35:40;7.13;;;6.38;;